sensor_id;sensor_type;location;lat;lon;timestamp;P1;durP1;ratioP1;P2;durP2;ratioP2
79747;SDS011;69232;47.488;19.268;2024-02-26T00:01:22;18.30;;;9.38;;
79747;SDS011;69232;47.488;19.268;2024-02-26T00:03:48;16.58;;;8.50;;
79747;SDS011;69232;47.488;19.268;2024-02-26T00:06:13;13.90;;;7.97;;
79747;SDS011;69232;47.488;19.268;2024-02-26T00:08:38;15.20;;;9.05;;
79747;SDS011;69232;47.488;19.268;2024-02-26T00:11:04;15.65;;;8.40;;
79747;SDS011;69232;47.488;19.268;2024-02-26T00:13:29;16.70;;;8.45;;
79747;SDS011;69232;47.488;19.268;2024-02-26T00:15:54;15.60;;;7.97;;
79747;SDS011;69232;47.488;19.268;2024-02-26T00:18:20;15.38;;;7.95;;
79747;SDS011;69232;47.488;19.268;2024-02-26T00:20:45;17.08;;;8.35;;
79747;SDS011;69232;47.488;19.268;2024-02-26T00:23:10;14.02;;;7.43;;
79747;SDS011;69232;47.488;19.268;2024-02-26T00:25:36;15.20;;;8.25;;
79747;SDS011;69232;47.488;19.268;2024-02-26T00:28:02;15.48;;;7.80;;
79747;SDS011;69232;47.488;19.268;2024-02-26T00:30:29;17.33;;;7.72;;
79747;SDS011;69232;47.488;19.268;2024-02-26T00:32:54;14.23;;;7.25;;
79747;SDS011;69232;47.488;19.268;2024-02-26T00:35:20;20.42;;;7.72;;
79747;SDS011;69232;47.488;19.268;2024-02-26T00:37:45;16.33;;;7.55;;
79747;SDS011;69232;47.488;19.268;2024-02-26T00:40:11;12.30;;;6.90;;
79747;SDS011;69232;47.488;19.268;2024-02-26T00:42:36;17.30;;;8.55;;
79747;SDS011;69232;47.488;19.268;2024-02-26T00:45:02;15.43;;;7.93;;
79747;SDS011;69232;47.488;19.268;2024-02-26T00:47:27;14.90;;;6.53;;
79747;SDS011;69232;47.488;19.268;2024-02-26T00:49:53;15.00;;;8.15;;
79747;SDS011;69232;47.488;19.268;2024-02-26T00:52:18;16.48;;;6.93;;
79747;SDS011;69232;47.488;19.268;2024-02-26T00:54:43;14.77;;;7.82;;
79747;SDS011;69232;47.488;19.268;2024-02-26T00:57:09;15.60;;;7.50;;
79747;SDS011;69232;47.488;19.268;2024-02-26T00:59:34;14.88;;;7.60;;
79747;SDS011;69232;47.488;19.268;2024-02-26T01:02:00;12.82;;;7.90;;
79747;SDS011;69232;47.488;19.268;2024-02-26T01:04:27;14.95;;;8.23;;
79747;SDS011;69232;47.488;19.268;2024-02-26T01:06:52;17.60;;;8.25;;
79747;SDS011;69232;47.488;19.268;2024-02-26T01:09:17;12.95;;;7.63;;
79747;SDS011;69232;47.488;19.268;2024-02-26T01:11:43;13.73;;;6.55;;
79747;SDS011;69232;47.488;19.268;2024-02-26T01:14:09;17.67;;;8.00;;
79747;SDS011;69232;47.488;19.268;2024-02-26T01:16:34;13.50;;;6.78;;
79747;SDS011;69232;47.488;19.268;2024-02-26T01:19:00;14.75;;;7.38;;
79747;SDS011;69232;47.488;19.268;2024-02-26T01:21:25;15.02;;;7.35;;
79747;SDS011;69232;47.488;19.268;2024-02-26T01:23:54;12.32;;;6.68;;
79747;SDS011;69232;47.488;19.268;2024-02-26T01:26:19;17.52;;;8.32;;
79747;SDS011;69232;47.488;19.268;2024-02-26T01:28:44;15.85;;;8.23;;
79747;SDS011;69232;47.488;19.268;2024-02-26T01:31:10;15.45;;;7.90;;
79747;SDS011;69232;47.488;19.268;2024-02-26T01:33:35;16.13;;;8.07;;
79747;SDS011;69232;47.488;19.268;2024-02-26T01:36:01;17.92;;;8.23;;
79747;SDS011;69232;47.488;19.268;2024-02-26T01:38:26;19.10;;;8.25;;
79747;SDS011;69232;47.488;19.268;2024-02-26T01:40:52;16.25;;;8.48;;
79747;SDS011;69232;47.488;19.268;2024-02-26T01:43:18;22.48;;;8.80;;
79747;SDS011;69232;47.488;19.268;2024-02-26T01:45:43;16.63;;;7.72;;
79747;SDS011;69232;47.488;19.268;2024-02-26T01:48:08;13.05;;;6.80;;
79747;SDS011;69232;47.488;19.268;2024-02-26T01:50:35;15.45;;;7.63;;
79747;SDS011;69232;47.488;19.268;2024-02-26T01:53:02;16.60;;;8.40;;
79747;SDS011;69232;47.488;19.268;2024-02-26T01:55:28;15.93;;;8.13;;
79747;SDS011;69232;47.488;19.268;2024-02-26T01:57:53;20.75;;;10.18;;
79747;SDS011;69232;47.488;19.268;2024-02-26T02:00:19;19.13;;;9.80;;
79747;SDS011;69232;47.488;19.268;2024-02-26T02:02:45;19.52;;;9.45;;
79747;SDS011;69232;47.488;19.268;2024-02-26T02:05:13;18.05;;;9.18;;
79747;SDS011;69232;47.488;19.268;2024-02-26T02:07:40;21.52;;;9.50;;
79747;SDS011;69232;47.488;19.268;2024-02-26T02:10:06;16.50;;;7.78;;
79747;SDS011;69232;47.488;19.268;2024-02-26T02:12:32;14.18;;;7.60;;
79747;SDS011;69232;47.488;19.268;2024-02-26T02:14:59;14.38;;;7.78;;
79747;SDS011;69232;47.488;19.268;2024-02-26T02:17:25;19.77;;;8.48;;
79747;SDS011;69232;47.488;19.268;2024-02-26T02:19:51;16.80;;;8.70;;
79747;SDS011;69232;47.488;19.268;2024-02-26T02:22:17;17.80;;;8.27;;
79747;SDS011;69232;47.488;19.268;2024-02-26T02:24:42;16.88;;;8.80;;
79747;SDS011;69232;47.488;19.268;2024-02-26T02:27:08;15.80;;;7.82;;
79747;SDS011;69232;47.488;19.268;2024-02-26T02:29:33;16.95;;;8.23;;
79747;SDS011;69232;47.488;19.268;2024-02-26T02:31:58;13.00;;;7.95;;
79747;SDS011;69232;47.488;19.268;2024-02-26T02:34:24;13.73;;;8.25;;
79747;SDS011;69232;47.488;19.268;2024-02-26T02:36:53;16.10;;;7.88;;
79747;SDS011;69232;47.488;19.268;2024-02-26T02:39:19;14.52;;;7.47;;
79747;SDS011;69232;47.488;19.268;2024-02-26T02:41:45;14.38;;;7.45;;
79747;SDS011;69232;47.488;19.268;2024-02-26T02:44:10;15.18;;;8.00;;
79747;SDS011;69232;47.488;19.268;2024-02-26T02:46:36;15.75;;;7.18;;
79747;SDS011;69232;47.488;19.268;2024-02-26T02:49:02;14.52;;;7.80;;
79747;SDS011;69232;47.488;19.268;2024-02-26T02:51:27;16.80;;;7.53;;
79747;SDS011;69232;47.488;19.268;2024-02-26T02:53:53;14.73;;;6.97;;
79747;SDS011;69232;47.488;19.268;2024-02-26T02:56:18;12.18;;;7.13;;
79747;SDS011;69232;47.488;19.268;2024-02-26T02:58:44;12.00;;;7.03;;
79747;SDS011;69232;47.488;19.268;2024-02-26T03:01:09;12.60;;;6.57;;
79747;SDS011;69232;47.488;19.268;2024-02-26T03:03:34;12.48;;;6.65;;
79747;SDS011;69232;47.488;19.268;2024-02-26T03:06:01;10.50;;;6.05;;
79747;SDS011;69232;47.488;19.268;2024-02-26T03:08:27;13.82;;;7.10;;
79747;SDS011;69232;47.488;19.268;2024-02-26T03:10:52;15.38;;;8.13;;
79747;SDS011;69232;47.488;19.268;2024-02-26T03:13:18;12.27;;;6.60;;
79747;SDS011;69232;47.488;19.268;2024-02-26T03:15:43;12.68;;;6.75;;
79747;SDS011;69232;47.488;19.268;2024-02-26T03:18:08;13.40;;;6.70;;
79747;SDS011;69232;47.488;19.268;2024-02-26T03:20:34;11.02;;;6.32;;
79747;SDS011;69232;47.488;19.268;2024-02-26T03:22:59;11.45;;;5.97;;
79747;SDS011;69232;47.488;19.268;2024-02-26T03:25:24;12.10;;;6.57;;
79747;SDS011;69232;47.488;19.268;2024-02-26T03:27:50;11.13;;;7.25;;
79747;SDS011;69232;47.488;19.268;2024-02-26T03:30:15;13.75;;;7.47;;
79747;SDS011;69232;47.488;19.268;2024-02-26T03:32:41;15.68;;;6.75;;
79747;SDS011;69232;47.488;19.268;2024-02-26T03:35:06;13.57;;;6.65;;
79747;SDS011;69232;47.488;19.268;2024-02-26T03:37:33;11.15;;;7.03;;
79747;SDS011;69232;47.488;19.268;2024-02-26T03:39:58;13.48;;;6.88;;
79747;SDS011;69232;47.488;19.268;2024-02-26T03:42:24;10.82;;;6.57;;
79747;SDS011;69232;47.488;19.268;2024-02-26T03:44:49;12.60;;;6.95;;
79747;SDS011;69232;47.488;19.268;2024-02-26T03:47:15;11.73;;;6.78;;
79747;SDS011;69232;47.488;19.268;2024-02-26T03:49:41;12.57;;;7.35;;
79747;SDS011;69232;47.488;19.268;2024-02-26T03:52:06;15.70;;;7.53;;
79747;SDS011;69232;47.488;19.268;2024-02-26T03:54:32;14.85;;;7.85;;
79747;SDS011;69232;47.488;19.268;2024-02-26T03:56:57;15.52;;;7.53;;
79747;SDS011;69232;47.488;19.268;2024-02-26T03:59:22;15.30;;;6.97;;
79747;SDS011;69232;47.488;19.268;2024-02-26T04:01:49;15.25;;;7.63;;
79747;SDS011;69232;47.488;19.268;2024-02-26T04:04:15;15.15;;;7.65;;
79747;SDS011;69232;47.488;19.268;2024-02-26T04:06:44;13.35;;;7.28;;
79747;SDS011;69232;47.488;19.268;2024-02-26T04:09:10;15.23;;;7.57;;
79747;SDS011;69232;47.488;19.268;2024-02-26T04:11:36;13.38;;;6.85;;
79747;SDS011;69232;47.488;19.268;2024-02-26T04:14:01;17.45;;;7.18;;
79747;SDS011;69232;47.488;19.268;2024-02-26T04:16:28;13.88;;;7.45;;
79747;SDS011;69232;47.488;19.268;2024-02-26T04:18:53;14.70;;;7.93;;
79747;SDS011;69232;47.488;19.268;2024-02-26T04:21:19;13.82;;;7.07;;
79747;SDS011;69232;47.488;19.268;2024-02-26T04:23:45;13.13;;;7.63;;
79747;SDS011;69232;47.488;19.268;2024-02-26T04:26:10;12.73;;;7.43;;
79747;SDS011;69232;47.488;19.268;2024-02-26T04:28:36;18.73;;;8.55;;
79747;SDS011;69232;47.488;19.268;2024-02-26T04:31:01;17.27;;;8.55;;
79747;SDS011;69232;47.488;19.268;2024-02-26T04:33:27;15.20;;;8.15;;
79747;SDS011;69232;47.488;19.268;2024-02-26T04:35:52;17.08;;;9.13;;
79747;SDS011;69232;47.488;19.268;2024-02-26T04:38:18;20.60;;;9.98;;
79747;SDS011;69232;47.488;19.268;2024-02-26T04:40:43;19.58;;;8.52;;
79747;SDS011;69232;47.488;19.268;2024-02-26T04:43:08;21.80;;;9.45;;
79747;SDS011;69232;47.488;19.268;2024-02-26T04:45:34;23.13;;;9.52;;
79747;SDS011;69232;47.488;19.268;2024-02-26T04:47:59;21.92;;;9.95;;
79747;SDS011;69232;47.488;19.268;2024-02-26T04:50:24;18.65;;;9.70;;
79747;SDS011;69232;47.488;19.268;2024-02-26T04:52:50;19.35;;;8.70;;
79747;SDS011;69232;47.488;19.268;2024-02-26T04:55:15;22.30;;;9.20;;
79747;SDS011;69232;47.488;19.268;2024-02-26T04:57:40;19.08;;;9.85;;
79747;SDS011;69232;47.488;19.268;2024-02-26T05:00:06;17.42;;;8.57;;
79747;SDS011;69232;47.488;19.268;2024-02-26T05:02:32;19.65;;;10.25;;
79747;SDS011;69232;47.488;19.268;2024-02-26T05:04:58;19.00;;;9.15;;
79747;SDS011;69232;47.488;19.268;2024-02-26T05:07:24;20.15;;;8.82;;
79747;SDS011;69232;47.488;19.268;2024-02-26T05:09:49;19.77;;;8.90;;
79747;SDS011;69232;47.488;19.268;2024-02-26T05:12:14;20.48;;;8.80;;
79747;SDS011;69232;47.488;19.268;2024-02-26T05:14:40;18.58;;;10.43;;
79747;SDS011;69232;47.488;19.268;2024-02-26T05:17:05;18.17;;;8.15;;
79747;SDS011;69232;47.488;19.268;2024-02-26T05:19:31;17.65;;;8.77;;
79747;SDS011;69232;47.488;19.268;2024-02-26T05:21:56;23.65;;;11.10;;
79747;SDS011;69232;47.488;19.268;2024-02-26T05:24:22;32.50;;;13.73;;
79747;SDS011;69232;47.488;19.268;2024-02-26T05:26:47;31.15;;;14.35;;
79747;SDS011;69232;47.488;19.268;2024-02-26T05:29:13;37.92;;;16.65;;
79747;SDS011;69232;47.488;19.268;2024-02-26T05:31:38;46.03;;;18.85;;
79747;SDS011;69232;47.488;19.268;2024-02-26T05:34:03;39.03;;;19.02;;
79747;SDS011;69232;47.488;19.268;2024-02-26T05:36:29;36.15;;;17.27;;
79747;SDS011;69232;47.488;19.268;2024-02-26T05:38:58;38.83;;;16.88;;
79747;SDS011;69232;47.488;19.268;2024-02-26T05:41:25;33.78;;;15.43;;
79747;SDS011;69232;47.488;19.268;2024-02-26T05:43:51;28.10;;;13.48;;
79747;SDS011;69232;47.488;19.268;2024-02-26T05:46:17;28.25;;;13.13;;
79747;SDS011;69232;47.488;19.268;2024-02-26T05:48:44;26.38;;;11.75;;
79747;SDS011;69232;47.488;19.268;2024-02-26T05:51:09;20.83;;;10.95;;
79747;SDS011;69232;47.488;19.268;2024-02-26T05:53:35;26.00;;;10.88;;
79747;SDS011;69232;47.488;19.268;2024-02-26T05:56:00;22.98;;;10.32;;
79747;SDS011;69232;47.488;19.268;2024-02-26T05:58:25;21.38;;;9.95;;
79747;SDS011;69232;47.488;19.268;2024-02-26T06:00:51;25.02;;;11.25;;
79747;SDS011;69232;47.488;19.268;2024-02-26T06:03:16;23.65;;;11.27;;
79747;SDS011;69232;47.488;19.268;2024-02-26T06:05:42;20.73;;;10.20;;
79747;SDS011;69232;47.488;19.268;2024-02-26T06:08:07;23.33;;;10.52;;
79747;SDS011;69232;47.488;19.268;2024-02-26T06:10:32;19.48;;;9.40;;
79747;SDS011;69232;47.488;19.268;2024-02-26T06:12:58;26.23;;;10.77;;
79747;SDS011;69232;47.488;19.268;2024-02-26T06:15:23;26.90;;;11.73;;
79747;SDS011;69232;47.488;19.268;2024-02-26T06:17:48;25.20;;;11.98;;
79747;SDS011;69232;47.488;19.268;2024-02-26T06:20:14;25.13;;;11.38;;
79747;SDS011;69232;47.488;19.268;2024-02-26T06:22:40;29.98;;;12.57;;
79747;SDS011;69232;47.488;19.268;2024-02-26T06:25:06;31.02;;;12.38;;
79747;SDS011;69232;47.488;19.268;2024-02-26T06:27:31;32.88;;;14.00;;
79747;SDS011;69232;47.488;19.268;2024-02-26T06:29:56;32.88;;;13.45;;
79747;SDS011;69232;47.488;19.268;2024-02-26T06:32:22;37.70;;;16.58;;
79747;SDS011;69232;47.488;19.268;2024-02-26T06:34:48;30.23;;;13.82;;
79747;SDS011;69232;47.488;19.268;2024-02-26T06:37:13;30.80;;;13.48;;
79747;SDS011;69232;47.488;19.268;2024-02-26T06:39:38;31.20;;;13.50;;
79747;SDS011;69232;47.488;19.268;2024-02-26T06:42:04;33.70;;;13.70;;
79747;SDS011;69232;47.488;19.268;2024-02-26T06:44:29;32.70;;;12.90;;
79747;SDS011;69232;47.488;19.268;2024-02-26T06:47:00;34.47;;;15.52;;
79747;SDS011;69232;47.488;19.268;2024-02-26T06:49:25;39.22;;;14.85;;
79747;SDS011;69232;47.488;19.268;2024-02-26T06:51:51;33.63;;;15.73;;
79747;SDS011;69232;47.488;19.268;2024-02-26T06:54:16;30.55;;;13.80;;
79747;SDS011;69232;47.488;19.268;2024-02-26T06:56:42;38.78;;;15.00;;
79747;SDS011;69232;47.488;19.268;2024-02-26T06:59:07;37.80;;;16.45;;
79747;SDS011;69232;47.488;19.268;2024-02-26T07:01:32;38.47;;;15.85;;
79747;SDS011;69232;47.488;19.268;2024-02-26T07:03:58;40.10;;;16.13;;
79747;SDS011;69232;47.488;19.268;2024-02-26T07:06:23;35.20;;;14.80;;
79747;SDS011;69232;47.488;19.268;2024-02-26T07:08:48;38.05;;;16.13;;
79747;SDS011;69232;47.488;19.268;2024-02-26T07:11:14;37.38;;;16.35;;
79747;SDS011;69232;47.488;19.268;2024-02-26T07:13:39;38.40;;;15.57;;
79747;SDS011;69232;47.488;19.268;2024-02-26T07:16:05;35.78;;;16.38;;
79747;SDS011;69232;47.488;19.268;2024-02-26T07:18:30;36.45;;;15.27;;
79747;SDS011;69232;47.488;19.268;2024-02-26T07:20:56;36.05;;;15.25;;
79747;SDS011;69232;47.488;19.268;2024-02-26T07:23:21;34.83;;;16.45;;
79747;SDS011;69232;47.488;19.268;2024-02-26T07:25:46;35.70;;;15.43;;
79747;SDS011;69232;47.488;19.268;2024-02-26T07:28:14;33.25;;;14.63;;
79747;SDS011;69232;47.488;19.268;2024-02-26T07:30:39;30.80;;;15.70;;
79747;SDS011;69232;47.488;19.268;2024-02-26T07:33:04;25.85;;;12.82;;
79747;SDS011;69232;47.488;19.268;2024-02-26T07:35:30;30.23;;;14.48;;
79747;SDS011;69232;47.488;19.268;2024-02-26T07:37:56;29.02;;;14.15;;
79747;SDS011;69232;47.488;19.268;2024-02-26T07:40:21;28.70;;;14.40;;
79747;SDS011;69232;47.488;19.268;2024-02-26T07:42:47;29.98;;;14.52;;
79747;SDS011;69232;47.488;19.268;2024-02-26T07:45:12;31.40;;;13.73;;
79747;SDS011;69232;47.488;19.268;2024-02-26T07:47:37;26.92;;;13.77;;
79747;SDS011;69232;47.488;19.268;2024-02-26T07:50:06;32.15;;;14.40;;
79747;SDS011;69232;47.488;19.268;2024-02-26T07:52:32;31.40;;;14.38;;
79747;SDS011;69232;47.488;19.268;2024-02-26T07:54:58;31.02;;;13.65;;
79747;SDS011;69232;47.488;19.268;2024-02-26T07:57:23;32.13;;;14.98;;
79747;SDS011;69232;47.488;19.268;2024-02-26T07:59:49;31.70;;;14.80;;
79747;SDS011;69232;47.488;19.268;2024-02-26T08:02:15;31.27;;;14.13;;
79747;SDS011;69232;47.488;19.268;2024-02-26T08:04:40;33.22;;;13.90;;
79747;SDS011;69232;47.488;19.268;2024-02-26T08:07:06;30.58;;;14.23;;
79747;SDS011;69232;47.488;19.268;2024-02-26T08:09:31;27.88;;;12.85;;
79747;SDS011;69232;47.488;19.268;2024-02-26T08:11:56;33.03;;;14.98;;
79747;SDS011;69232;47.488;19.268;2024-02-26T08:14:22;25.83;;;14.18;;
79747;SDS011;69232;47.488;19.268;2024-02-26T08:16:47;28.05;;;13.80;;
79747;SDS011;69232;47.488;19.268;2024-02-26T08:19:13;27.83;;;13.65;;
79747;SDS011;69232;47.488;19.268;2024-02-26T08:21:40;27.27;;;14.43;;
79747;SDS011;69232;47.488;19.268;2024-02-26T08:24:05;25.20;;;13.20;;
79747;SDS011;69232;47.488;19.268;2024-02-26T08:26:31;29.02;;;14.00;;
79747;SDS011;69232;47.488;19.268;2024-02-26T08:28:56;33.58;;;14.57;;
79747;SDS011;69232;47.488;19.268;2024-02-26T08:31:23;26.73;;;12.82;;
79747;SDS011;69232;47.488;19.268;2024-02-26T08:33:48;25.85;;;13.90;;
79747;SDS011;69232;47.488;19.268;2024-02-26T08:36:14;26.73;;;14.07;;
79747;SDS011;69232;47.488;19.268;2024-02-26T08:38:39;28.65;;;13.90;;
79747;SDS011;69232;47.488;19.268;2024-02-26T08:41:04;33.85;;;15.55;;
79747;SDS011;69232;47.488;19.268;2024-02-26T08:43:30;24.60;;;13.80;;
79747;SDS011;69232;47.488;19.268;2024-02-26T08:45:56;28.63;;;15.88;;
79747;SDS011;69232;47.488;19.268;2024-02-26T08:48:22;30.33;;;15.90;;
79747;SDS011;69232;47.488;19.268;2024-02-26T08:50:47;34.63;;;15.02;;
79747;SDS011;69232;47.488;19.268;2024-02-26T08:53:12;28.42;;;14.40;;
79747;SDS011;69232;47.488;19.268;2024-02-26T08:55:37;30.35;;;16.05;;
79747;SDS011;69232;47.488;19.268;2024-02-26T08:58:03;39.25;;;17.30;;
79747;SDS011;69232;47.488;19.268;2024-02-26T09:00:28;32.65;;;18.02;;
79747;SDS011;69232;47.488;19.268;2024-02-26T09:02:54;34.78;;;17.65;;
79747;SDS011;69232;47.488;19.268;2024-02-26T09:05:19;43.63;;;18.50;;
79747;SDS011;69232;47.488;19.268;2024-02-26T09:07:44;35.75;;;18.52;;
79747;SDS011;69232;47.488;19.268;2024-02-26T09:10:11;41.15;;;19.25;;
79747;SDS011;69232;47.488;19.268;2024-02-26T09:12:37;34.03;;;18.55;;
79747;SDS011;69232;47.488;19.268;2024-02-26T09:15:03;34.17;;;17.75;;
79747;SDS011;69232;47.488;19.268;2024-02-26T09:17:28;37.95;;;18.85;;
79747;SDS011;69232;47.488;19.268;2024-02-26T09:19:54;36.58;;;18.90;;
79747;SDS011;69232;47.488;19.268;2024-02-26T09:22:19;38.40;;;19.40;;
79747;SDS011;69232;47.488;19.268;2024-02-26T09:24:45;42.17;;;20.45;;
79747;SDS011;69232;47.488;19.268;2024-02-26T09:27:11;37.38;;;18.80;;
79747;SDS011;69232;47.488;19.268;2024-02-26T09:29:36;35.30;;;18.48;;
79747;SDS011;69232;47.488;19.268;2024-02-26T09:32:02;35.80;;;18.52;;
79747;SDS011;69232;47.488;19.268;2024-02-26T09:34:27;33.10;;;18.25;;
79747;SDS011;69232;47.488;19.268;2024-02-26T09:36:53;40.22;;;19.63;;
79747;SDS011;69232;47.488;19.268;2024-02-26T09:39:18;34.67;;;16.98;;
79747;SDS011;69232;47.488;19.268;2024-02-26T09:41:46;33.28;;;16.85;;
79747;SDS011;69232;47.488;19.268;2024-02-26T09:44:13;33.00;;;16.55;;
79747;SDS011;69232;47.488;19.268;2024-02-26T09:46:41;33.97;;;16.83;;
79747;SDS011;69232;47.488;19.268;2024-02-26T09:49:07;32.72;;;17.65;;
79747;SDS011;69232;47.488;19.268;2024-02-26T09:51:33;36.65;;;18.50;;
79747;SDS011;69232;47.488;19.268;2024-02-26T09:53:59;34.88;;;17.92;;
79747;SDS011;69232;47.488;19.268;2024-02-26T09:56:26;28.60;;;15.80;;
79747;SDS011;69232;47.488;19.268;2024-02-26T09:58:51;29.83;;;16.40;;
79747;SDS011;69232;47.488;19.268;2024-02-26T10:01:19;31.48;;;15.48;;
79747;SDS011;69232;47.488;19.268;2024-02-26T10:03:46;31.05;;;15.95;;
79747;SDS011;69232;47.488;19.268;2024-02-26T10:06:13;35.08;;;16.80;;
79747;SDS011;69232;47.488;19.268;2024-02-26T10:08:39;32.58;;;16.42;;
79747;SDS011;69232;47.488;19.268;2024-02-26T10:11:05;33.20;;;15.98;;
79747;SDS011;69232;47.488;19.268;2024-02-26T10:13:32;33.53;;;16.98;;
79747;SDS011;69232;47.488;19.268;2024-02-26T10:15:57;33.47;;;16.65;;
79747;SDS011;69232;47.488;19.268;2024-02-26T10:18:23;31.77;;;16.05;;
79747;SDS011;69232;47.488;19.268;2024-02-26T10:20:58;27.25;;;14.73;;
79747;SDS011;69232;47.488;19.268;2024-02-26T10:23:27;30.92;;;16.30;;
79747;SDS011;69232;47.488;19.268;2024-02-26T10:25:56;31.38;;;15.77;;
79747;SDS011;69232;47.488;19.268;2024-02-26T10:28:21;27.73;;;14.90;;
79747;SDS011;69232;47.488;19.268;2024-02-26T10:30:47;29.98;;;15.48;;
79747;SDS011;69232;47.488;19.268;2024-02-26T10:33:12;29.85;;;16.08;;
79747;SDS011;69232;47.488;19.268;2024-02-26T10:35:39;29.17;;;16.35;;
79747;SDS011;69232;47.488;19.268;2024-02-26T10:38:06;30.05;;;16.58;;
79747;SDS011;69232;47.488;19.268;2024-02-26T10:40:32;28.10;;;15.77;;
79747;SDS011;69232;47.488;19.268;2024-02-26T10:42:57;32.13;;;15.27;;
79747;SDS011;69232;47.488;19.268;2024-02-26T10:45:23;29.67;;;15.93;;
79747;SDS011;69232;47.488;19.268;2024-02-26T10:47:48;28.27;;;16.42;;
79747;SDS011;69232;47.488;19.268;2024-02-26T10:50:13;31.35;;;17.60;;
79747;SDS011;69232;47.488;19.268;2024-02-26T10:52:42;28.77;;;16.17;;
79747;SDS011;69232;47.488;19.268;2024-02-26T10:55:07;33.58;;;16.52;;
79747;SDS011;69232;47.488;19.268;2024-02-26T10:57:39;30.88;;;15.77;;
79747;SDS011;69232;47.488;19.268;2024-02-26T11:00:05;24.95;;;14.10;;
79747;SDS011;69232;47.488;19.268;2024-02-26T11:02:34;25.67;;;14.70;;
79747;SDS011;69232;47.488;19.268;2024-02-26T11:05:02;24.70;;;12.88;;
79747;SDS011;69232;47.488;19.268;2024-02-26T11:07:29;23.77;;;13.98;;
79747;SDS011;69232;47.488;19.268;2024-02-26T11:09:55;26.42;;;14.30;;
79747;SDS011;69232;47.488;19.268;2024-02-26T11:12:21;25.13;;;14.60;;
79747;SDS011;69232;47.488;19.268;2024-02-26T11:14:47;21.98;;;12.50;;
79747;SDS011;69232;47.488;19.268;2024-02-26T11:17:13;23.55;;;13.43;;
79747;SDS011;69232;47.488;19.268;2024-02-26T11:19:41;25.33;;;13.93;;
79747;SDS011;69232;47.488;19.268;2024-02-26T11:22:08;22.52;;;12.30;;
79747;SDS011;69232;47.488;19.268;2024-02-26T11:24:33;20.60;;;10.48;;
79747;SDS011;69232;47.488;19.268;2024-02-26T11:27:01;20.55;;;11.15;;
79747;SDS011;69232;47.488;19.268;2024-02-26T11:29:38;21.58;;;11.10;;
79747;SDS011;69232;47.488;19.268;2024-02-26T11:32:15;24.75;;;12.05;;
79747;SDS011;69232;47.488;19.268;2024-02-26T11:34:40;21.05;;;11.98;;
79747;SDS011;69232;47.488;19.268;2024-02-26T11:37:13;19.13;;;10.07;;
79747;SDS011;69232;47.488;19.268;2024-02-26T11:39:40;17.23;;;9.32;;
79747;SDS011;69232;47.488;19.268;2024-02-26T11:42:06;17.17;;;9.48;;
79747;SDS011;69232;47.488;19.268;2024-02-26T11:44:36;18.17;;;10.20;;
79747;SDS011;69232;47.488;19.268;2024-02-26T11:47:14;18.70;;;9.65;;
79747;SDS011;69232;47.488;19.268;2024-02-26T11:49:43;21.58;;;10.27;;
79747;SDS011;69232;47.488;19.268;2024-02-26T11:52:09;15.73;;;9.15;;
79747;SDS011;69232;47.488;19.268;2024-02-26T11:54:48;19.92;;;9.23;;
79747;SDS011;69232;47.488;19.268;2024-02-26T11:57:25;17.23;;;9.52;;
79747;SDS011;69232;47.488;19.268;2024-02-26T11:59:54;19.25;;;9.95;;
79747;SDS011;69232;47.488;19.268;2024-02-26T12:02:51;18.05;;;9.13;;
79747;SDS011;69232;47.488;19.268;2024-02-26T12:05:30;21.42;;;9.20;;
79747;SDS011;69232;47.488;19.268;2024-02-26T12:08:00;19.35;;;9.52;;
79747;SDS011;69232;47.488;19.268;2024-02-26T12:10:38;16.08;;;10.07;;
79747;SDS011;69232;47.488;19.268;2024-02-26T12:13:13;20.38;;;10.57;;
79747;SDS011;69232;47.488;19.268;2024-02-26T12:15:42;18.98;;;9.30;;
79747;SDS011;69232;47.488;19.268;2024-02-26T12:18:10;14.10;;;7.53;;
79747;SDS011;69232;47.488;19.268;2024-02-26T12:20:39;11.43;;;6.53;;
79747;SDS011;69232;47.488;19.268;2024-02-26T12:23:04;12.85;;;7.97;;
79747;SDS011;69232;47.488;19.268;2024-02-26T12:25:30;18.13;;;10.07;;
79747;SDS011;69232;47.488;19.268;2024-02-26T12:27:57;14.23;;;9.43;;
79747;SDS011;69232;47.488;19.268;2024-02-26T12:30:23;11.98;;;8.13;;
79747;SDS011;69232;47.488;19.268;2024-02-26T12:32:50;14.68;;;8.05;;
79747;SDS011;69232;47.488;19.268;2024-02-26T12:35:16;13.18;;;8.27;;
79747;SDS011;69232;47.488;19.268;2024-02-26T12:37:42;14.88;;;7.80;;
79747;SDS011;69232;47.488;19.268;2024-02-26T12:40:08;12.00;;;7.45;;
79747;SDS011;69232;47.488;19.268;2024-02-26T12:42:35;11.05;;;7.28;;
79747;SDS011;69232;47.488;19.268;2024-02-26T12:45:07;11.25;;;8.25;;
79747;SDS011;69232;47.488;19.268;2024-02-26T12:47:37;13.70;;;7.28;;
79747;SDS011;69232;47.488;19.268;2024-02-26T12:50:09;9.38;;;6.88;;
79747;SDS011;69232;47.488;19.268;2024-02-26T12:52:39;10.93;;;7.28;;
79747;SDS011;69232;47.488;19.268;2024-02-26T12:55:05;11.77;;;7.22;;
79747;SDS011;69232;47.488;19.268;2024-02-26T12:57:34;12.02;;;7.82;;
79747;SDS011;69232;47.488;19.268;2024-02-26T13:00:01;11.95;;;7.85;;
79747;SDS011;69232;47.488;19.268;2024-02-26T13:02:26;10.55;;;7.45;;
79747;SDS011;69232;47.488;19.268;2024-02-26T13:04:52;9.85;;;6.80;;
79747;SDS011;69232;47.488;19.268;2024-02-26T13:07:20;8.75;;;7.07;;
79747;SDS011;69232;47.488;19.268;2024-02-26T13:09:45;13.55;;;7.68;;
79747;SDS011;69232;47.488;19.268;2024-02-26T13:12:11;13.52;;;8.35;;
79747;SDS011;69232;47.488;19.268;2024-02-26T13:14:37;11.00;;;7.93;;
79747;SDS011;69232;47.488;19.268;2024-02-26T13:17:03;12.75;;;8.65;;
79747;SDS011;69232;47.488;19.268;2024-02-26T13:19:29;11.60;;;8.07;;
79747;SDS011;69232;47.488;19.268;2024-02-26T13:21:54;12.65;;;8.20;;
79747;SDS011;69232;47.488;19.268;2024-02-26T13:24:20;15.75;;;10.02;;
79747;SDS011;69232;47.488;19.268;2024-02-26T13:26:47;13.13;;;8.82;;
79747;SDS011;69232;47.488;19.268;2024-02-26T13:29:18;10.27;;;7.90;;
79747;SDS011;69232;47.488;19.268;2024-02-26T13:31:44;10.50;;;7.43;;
79747;SDS011;69232;47.488;19.268;2024-02-26T13:34:09;13.77;;;8.23;;
79747;SDS011;69232;47.488;19.268;2024-02-26T13:36:35;13.02;;;7.68;;
79747;SDS011;69232;47.488;19.268;2024-02-26T13:39:00;12.60;;;7.85;;
79747;SDS011;69232;47.488;19.268;2024-02-26T13:41:26;12.70;;;8.80;;
79747;SDS011;69232;47.488;19.268;2024-02-26T13:43:52;16.15;;;9.50;;
79747;SDS011;69232;47.488;19.268;2024-02-26T13:46:17;14.57;;;9.57;;
79747;SDS011;69232;47.488;19.268;2024-02-26T13:48:43;16.40;;;10.35;;
79747;SDS011;69232;47.488;19.268;2024-02-26T13:51:08;15.93;;;10.25;;
79747;SDS011;69232;47.488;19.268;2024-02-26T13:53:34;15.35;;;9.20;;
79747;SDS011;69232;47.488;19.268;2024-02-26T13:55:59;16.27;;;10.23;;
79747;SDS011;69232;47.488;19.268;2024-02-26T13:58:26;18.15;;;11.07;;
79747;SDS011;69232;47.488;19.268;2024-02-26T14:00:52;17.80;;;11.15;;
79747;SDS011;69232;47.488;19.268;2024-02-26T14:03:20;17.15;;;10.15;;
79747;SDS011;69232;47.488;19.268;2024-02-26T14:05:46;15.35;;;10.38;;
79747;SDS011;69232;47.488;19.268;2024-02-26T14:08:11;16.38;;;10.82;;
79747;SDS011;69232;47.488;19.268;2024-02-26T14:10:37;17.38;;;11.32;;